sensor_id;sensor_type;location;lat;lon;timestamp;pressure;altitude;pressure_sealevel;temperature;humidity
74615;BME280;63121;51.458;-0.110;2022-09-13T00:01:13;100920.00;;;21.69;63.71
74615;BME280;63121;51.458;-0.110;2022-09-13T00:03:38;100922.25;;;21.76;63.67
74615;BME280;63121;51.458;-0.110;2022-09-13T00:06:15;100918.22;;;22.02;62.31
74615;BME280;63121;51.458;-0.110;2022-09-13T00:08:41;100918.22;;;22.02;62.77
74615;BME280;63121;51.458;-0.110;2022-09-13T00:11:07;100925.25;;;22.01;62.20
74615;BME280;63121;51.458;-0.110;2022-09-13T00:13:38;100924.50;;;21.99;62.36
74615;BME280;63121;51.458;-0.110;2022-09-13T00:16:03;100925.50;;;21.97;62.07
74615;BME280;63121;51.458;-0.110;2022-09-13T00:18:34;100931.09;;;22.06;61.88
74615;BME280;63121;51.458;-0.110;2022-09-13T00:21:08;100923.06;;;22.09;61.76
74615;BME280;63121;51.458;-0.110;2022-09-13T00:23:35;100931.94;;;22.07;61.51
74615;BME280;63121;51.458;-0.110;2022-09-13T00:26:08;100951.97;;;22.09;61.29
74615;BME280;63121;51.458;-0.110;2022-09-13T00:28:34;100936.34;;;22.06;61.79
74615;BME280;63121;51.458;-0.110;2022-09-13T00:31:01;100946.09;;;22.04;61.71
74615;BME280;63121;51.458;-0.110;2022-09-13T00:33:27;100946.88;;;22.06;62.23
74615;BME280;63121;51.458;-0.110;2022-09-13T00:35:52;100937.72;;;21.98;62.26
74615;BME280;63121;51.458;-0.110;2022-09-13T00:38:18;100939.91;;;21.89;62.81
74615;BME280;63121;51.458;-0.110;2022-09-13T00:40:43;100936.94;;;21.80;62.99
74615;BME280;63121;51.458;-0.110;2022-09-13T00:43:17;100929.31;;;21.75;63.37
74615;BME280;63121;51.458;-0.110;2022-09-13T00:45:43;100925.06;;;21.72;63.36
74615;BME280;63121;51.458;-0.110;2022-09-13T00:48:16;100928.22;;;21.63;63.81
74615;BME280;63121;51.458;-0.110;2022-09-13T00:50:46;100923.63;;;21.67;63.29
74615;BME280;63121;51.458;-0.110;2022-09-13T00:53:22;100931.16;;;21.57;63.23
74615;BME280;63121;51.458;-0.110;2022-09-13T00:56:02;100926.41;;;21.64;63.50
74615;BME280;63121;51.458;-0.110;2022-09-13T00:58:40;100920.81;;;21.54;63.63
74615;BME280;63121;51.458;-0.110;2022-09-13T01:01:10;100927.91;;;21.52;64.16
74615;BME280;63121;51.458;-0.110;2022-09-13T01:03:38;100933.03;;;21.55;64.30
74615;BME280;63121;51.458;-0.110;2022-09-13T01:06:10;100932.34;;;21.51;65.19
74615;BME280;63121;51.458;-0.110;2022-09-13T01:08:39;100930.22;;;21.58;65.15
74615;BME280;63121;51.458;-0.110;2022-09-13T01:11:10;100925.91;;;21.57;64.88
74615;BME280;63121;51.458;-0.110;2022-09-13T01:13:38;100925.28;;;21.52;65.22
74615;BME280;63121;51.458;-0.110;2022-09-13T01:16:03;100924.72;;;21.47;65.80
74615;BME280;63121;51.458;-0.110;2022-09-13T01:18:29;100911.84;;;21.58;65.54
74615;BME280;63121;51.458;-0.110;2022-09-13T01:21:09;100918.50;;;21.48;65.75
74615;BME280;63121;51.458;-0.110;2022-09-13T01:23:47;100918.97;;;21.39;66.51
74615;BME280;63121;51.458;-0.110;2022-09-13T01:31:39;100913.28;;;21.30;66.67
74615;BME280;63121;51.458;-0.110;2022-09-13T01:42:07;100920.94;;;21.18;67.84
74615;BME280;63121;51.458;-0.110;2022-09-13T01:45:40;100917.16;;;21.23;67.58
74615;BME280;63121;51.458;-0.110;2022-09-13T01:47:56;100919.78;;;21.23;68.06
74615;BME280;63121;51.458;-0.110;2022-09-13T01:50:45;100916.22;;;21.24;67.61
74615;BME280;63121;51.458;-0.110;2022-09-13T01:53:36;100912.84;;;21.22;67.77
74615;BME280;63121;51.458;-0.110;2022-09-13T01:56:09;100912.84;;;21.22;67.93
74615;BME280;63121;51.458;-0.110;2022-09-13T01:58:47;100910.06;;;21.25;67.99
74615;BME280;63121;51.458;-0.110;2022-09-13T02:01:16;100913.84;;;21.20;68.47
74615;BME280;63121;51.458;-0.110;2022-09-13T02:04:03;100918.25;;;21.19;68.63
74615;BME280;63121;51.458;-0.110;2022-09-13T02:06:39;100913.06;;;21.18;68.56
74615;BME280;63121;51.458;-0.110;2022-09-13T02:09:12;100913.91;;;21.18;69.04
74615;BME280;63121;51.458;-0.110;2022-09-13T02:11:41;100915.50;;;21.05;70.02
74615;BME280;63121;51.458;-0.110;2022-09-13T02:14:13;100920.34;;;21.13;69.40
74615;BME280;63121;51.458;-0.110;2022-09-13T02:17:00;100921.13;;;21.15;69.62
74615;BME280;63121;51.458;-0.110;2022-09-13T02:19:32;100914.94;;;21.16;69.20
74615;BME280;63121;51.458;-0.110;2022-09-13T02:21:59;100920.94;;;21.18;69.22
74615;BME280;63121;51.458;-0.110;2022-09-13T02:24:31;100917.63;;;21.14;69.46
74615;BME280;63121;51.458;-0.110;2022-09-13T02:26:58;100917.94;;;21.08;69.71
74615;BME280;63121;51.458;-0.110;2022-09-13T02:29:25;100915.31;;;21.08;70.03
74615;BME280;63121;51.458;-0.110;2022-09-13T02:32:01;100917.34;;;21.03;70.41
74615;BME280;63121;51.458;-0.110;2022-09-13T02:34:39;100912.03;;;20.87;70.66
74615;BME280;63121;51.458;-0.110;2022-09-13T02:37:08;100908.09;;;20.78;71.18
74615;BME280;63121;51.458;-0.110;2022-09-13T02:39:37;100920.00;;;20.85;71.33
74615;BME280;63121;51.458;-0.110;2022-09-13T02:42:09;100920.66;;;20.89;70.77
74615;BME280;63121;51.458;-0.110;2022-09-13T02:44:44;100923.41;;;20.87;71.26
74615;BME280;63121;51.458;-0.110;2022-09-13T02:53:10;100921.06;;;20.81;71.68
74615;BME280;63121;51.458;-0.110;2022-09-13T03:01:10;100913.78;;;20.51;72.64
74615;BME280;63121;51.458;-0.110;2022-09-13T03:03:35;100910.47;;;20.48;72.43
74615;BME280;63121;51.458;-0.110;2022-09-13T03:06:01;100912.25;;;20.47;72.77
74615;BME280;63121;51.458;-0.110;2022-09-13T03:08:27;100917.03;;;20.57;72.47
74615;BME280;63121;51.458;-0.110;2022-09-13T03:10:56;100922.50;;;20.52;72.64
74615;BME280;63121;51.458;-0.110;2022-09-13T03:39:44;100939.50;;;20.62;71.61
74615;BME280;63121;51.458;-0.110;2022-09-13T03:42:23;100950.06;;;20.61;71.53
74615;BME280;63121;51.458;-0.110;2022-09-13T03:44:54;100964.66;;;20.66;71.41
74615;BME280;63121;51.458;-0.110;2022-09-13T03:47:23;100967.69;;;20.57;71.93
74615;BME280;63121;51.458;-0.110;2022-09-13T03:49:51;100958.88;;;20.60;71.58
74615;BME280;63121;51.458;-0.110;2022-09-13T03:52:17;100951.63;;;20.65;71.53
74615;BME280;63121;51.458;-0.110;2022-09-13T03:54:43;100947.44;;;20.61;71.83
74615;BME280;63121;51.458;-0.110;2022-09-13T03:57:17;100947.84;;;20.70;71.28
74615;BME280;63121;51.458;-0.110;2022-09-13T03:59:50;100953.94;;;20.71;71.70
74615;BME280;63121;51.458;-0.110;2022-09-13T04:02:16;100942.97;;;20.63;71.87
74615;BME280;63121;51.458;-0.110;2022-09-13T04:04:44;100951.84;;;20.60;71.19
74615;BME280;63121;51.458;-0.110;2022-09-13T04:07:12;100954.47;;;20.60;71.51
74615;BME280;63121;51.458;-0.110;2022-09-13T04:09:37;100953.53;;;20.61;71.42
74615;BME280;63121;51.458;-0.110;2022-09-13T04:12:04;100957.59;;;20.49;71.71
74615;BME280;63121;51.458;-0.110;2022-09-13T04:14:29;100964.47;;;20.52;71.35
74615;BME280;63121;51.458;-0.110;2022-09-13T04:16:56;100966.13;;;20.72;70.97
74615;BME280;63121;51.458;-0.110;2022-09-13T04:19:23;100964.44;;;20.71;70.58
74615;BME280;63121;51.458;-0.110;2022-09-13T04:21:50;100973.00;;;20.75;70.61
74615;BME280;63121;51.458;-0.110;2022-09-13T04:24:16;100976.63;;;20.72;70.79
74615;BME280;63121;51.458;-0.110;2022-09-13T04:26:41;100981.88;;;20.53;71.45
74615;BME280;63121;51.458;-0.110;2022-09-13T04:29:07;100971.84;;;20.63;71.05
74615;BME280;63121;51.458;-0.110;2022-09-13T04:31:32;100982.28;;;20.45;71.40
74615;BME280;63121;51.458;-0.110;2022-09-13T04:33:58;100984.34;;;20.58;70.78
74615;BME280;63121;51.458;-0.110;2022-09-13T04:36:24;100985.72;;;20.65;70.65
74615;BME280;63121;51.458;-0.110;2022-09-13T04:38:50;100982.50;;;20.77;69.87
74615;BME280;63121;51.458;-0.110;2022-09-13T04:41:15;100992.22;;;20.75;70.19
74615;BME280;63121;51.458;-0.110;2022-09-13T04:43:41;100989.19;;;20.83;69.89
74615;BME280;63121;51.458;-0.110;2022-09-13T04:46:07;100999.16;;;20.76;69.98
74615;BME280;63121;51.458;-0.110;2022-09-13T04:48:32;101001.78;;;20.76;69.95
74615;BME280;63121;51.458;-0.110;2022-09-13T04:51:04;100991.16;;;20.79;70.09
74615;BME280;63121;51.458;-0.110;2022-09-13T04:53:30;100987.22;;;20.70;69.95
74615;BME280;63121;51.458;-0.110;2022-09-13T04:56:02;100994.84;;;20.75;69.99
74615;BME280;63121;51.458;-0.110;2022-09-13T04:58:29;100992.03;;;20.61;69.90
74615;BME280;63121;51.458;-0.110;2022-09-13T05:01:05;100999.06;;;20.60;70.11
74615;BME280;63121;51.458;-0.110;2022-09-13T05:03:32;100996.22;;;20.65;69.61
74615;BME280;63121;51.458;-0.110;2022-09-13T05:06:09;101001.16;;;20.71;69.45
74615;BME280;63121;51.458;-0.110;2022-09-13T05:08:36;101002.06;;;20.70;69.06
74615;BME280;63121;51.458;-0.110;2022-09-13T05:11:02;100993.06;;;20.57;69.29
74615;BME280;63121;51.458;-0.110;2022-09-13T05:13:28;100998.78;;;20.66;69.49
74615;BME280;63121;51.458;-0.110;2022-09-13T05:15:57;100994.94;;;20.55;69.65
74615;BME280;63121;51.458;-0.110;2022-09-13T05:18:34;100994.16;;;20.52;69.21
74615;BME280;63121;51.458;-0.110;2022-09-13T05:21:01;100994.81;;;20.58;69.16
74615;BME280;63121;51.458;-0.110;2022-09-13T05:23:29;101000.84;;;20.60;68.98
74615;BME280;63121;51.458;-0.110;2022-09-13T05:25:56;100993.25;;;20.54;69.09
74615;BME280;63121;51.458;-0.110;2022-09-13T05:28:23;100992.69;;;20.28;70.31
74615;BME280;63121;51.458;-0.110;2022-09-13T05:30:59;100996.03;;;20.31;69.96
74615;BME280;63121;51.458;-0.110;2022-09-13T05:33:26;100994.41;;;20.29;70.35
74615;BME280;63121;51.458;-0.110;2022-09-13T05:35:52;100995.97;;;20.33;70.46
74615;BME280;63121;51.458;-0.110;2022-09-13T05:38:17;100994.41;;;20.29;69.98
74615;BME280;63121;51.458;-0.110;2022-09-13T05:40:43;100992.88;;;20.42;70.04
74615;BME280;63121;51.458;-0.110;2022-09-13T05:43:08;100998.06;;;20.44;69.69
74615;BME280;63121;51.458;-0.110;2022-09-13T05:45:33;100992.66;;;20.47;69.82
74615;BME280;63121;51.458;-0.110;2022-09-13T05:47:59;100998.69;;;20.49;70.00
74615;BME280;63121;51.458;-0.110;2022-09-13T05:50:24;100998.00;;;20.45;69.89
74615;BME280;63121;51.458;-0.110;2022-09-13T05:52:53;100985.38;;;20.54;69.70
74615;BME280;63121;51.458;-0.110;2022-09-13T05:55:20;100986.16;;;20.56;69.29
74615;BME280;63121;51.458;-0.110;2022-09-13T05:57:46;100994.53;;;20.26;70.26
74615;BME280;63121;51.458;-0.110;2022-09-13T06:00:12;100986.56;;;20.46;69.79
74615;BME280;63121;51.458;-0.110;2022-09-13T06:02:37;100984.41;;;20.37;70.40
74615;BME280;63121;51.458;-0.110;2022-09-13T06:05:03;100982.69;;;20.36;70.25
74615;BME280;63121;51.458;-0.110;2022-09-13T06:07:28;100982.09;;;20.48;70.13
74615;BME280;63121;51.458;-0.110;2022-09-13T06:09:54;100988.13;;;20.50;69.64
74615;BME280;63121;51.458;-0.110;2022-09-13T06:12:19;100990.44;;;20.39;70.14
74615;BME280;63121;51.458;-0.110;2022-09-13T06:14:44;100988.09;;;20.33;70.01
74615;BME280;63121;51.458;-0.110;2022-09-13T06:17:10;100996.50;;;20.40;70.05
74615;BME280;63121;51.458;-0.110;2022-09-13T06:19:35;100999.84;;;20.43;69.79
74615;BME280;63121;51.458;-0.110;2022-09-13T06:22:00;100995.97;;;20.33;69.92
74615;BME280;63121;51.458;-0.110;2022-09-13T06:24:26;100985.50;;;20.14;70.11
74615;BME280;63121;51.458;-0.110;2022-09-13T06:26:51;100993.91;;;20.21;69.04
74615;BME280;63121;51.458;-0.110;2022-09-13T06:29:18;100991.44;;;20.18;69.22
74615;BME280;63121;51.458;-0.110;2022-09-13T06:31:43;100988.31;;;20.28;68.52
74615;BME280;63121;51.458;-0.110;2022-09-13T06:34:10;100987.16;;;20.34;67.67
74615;BME280;63121;51.458;-0.110;2022-09-13T06:36:40;100983.50;;;20.00;68.06
74615;BME280;63121;51.458;-0.110;2022-09-13T06:39:06;100989.13;;;19.93;68.04
74615;BME280;63121;51.458;-0.110;2022-09-13T06:41:32;100997.81;;;19.93;67.86
74615;BME280;63121;51.458;-0.110;2022-09-13T06:43:59;100996.03;;;20.13;67.34
74615;BME280;63121;51.458;-0.110;2022-09-13T06:46:27;100989.28;;;20.26;66.26
74615;BME280;63121;51.458;-0.110;2022-09-13T06:48:53;100994.53;;;20.26;66.50
74615;BME280;63121;51.458;-0.110;2022-09-13T06:51:21;100992.41;;;20.15;66.02
74615;BME280;63121;51.458;-0.110;2022-09-13T06:53:48;101002.22;;;19.93;65.62
74615;BME280;63121;51.458;-0.110;2022-09-13T06:56:14;100994.41;;;19.91;66.12
74615;BME280;63121;51.458;-0.110;2022-09-13T06:58:42;100995.47;;;19.87;65.27
74615;BME280;63121;51.458;-0.110;2022-09-13T07:01:16;100996.75;;;19.97;65.14
74615;BME280;63121;51.458;-0.110;2022-09-13T07:03:47;100988.84;;;19.99;64.65
74615;BME280;63121;51.458;-0.110;2022-09-13T07:06:15;100995.03;;;19.96;64.70
74615;BME280;63121;51.458;-0.110;2022-09-13T07:08:42;100987.97;;;19.98;63.82
74615;BME280;63121;51.458;-0.110;2022-09-13T07:11:08;100986.06;;;19.83;62.55
74615;BME280;63121;51.458;-0.110;2022-09-13T07:13:34;100983.50;;;20.00;62.70
74615;BME280;63121;51.458;-0.110;2022-09-13T07:16:04;100989.31;;;20.07;61.73
74615;BME280;63121;51.458;-0.110;2022-09-13T07:18:30;100987.28;;;19.95;61.31
74615;BME280;63121;51.458;-0.110;2022-09-13T07:21:02;100979.81;;;20.04;61.50
74615;BME280;63121;51.458;-0.110;2022-09-13T07:23:30;100982.38;;;19.87;61.25
74615;BME280;63121;51.458;-0.110;2022-09-13T07:25:56;100980.47;;;19.72;61.73
74615;BME280;63121;51.458;-0.110;2022-09-13T07:28:28;100974.28;;;19.73;61.80
74615;BME280;63121;51.458;-0.110;2022-09-13T07:30:55;100977.16;;;19.66;61.63
74615;BME280;63121;51.458;-0.110;2022-09-13T07:33:23;100981.25;;;19.53;62.07
74615;BME280;63121;51.458;-0.110;2022-09-13T07:35:54;100982.53;;;19.63;61.18
74615;BME280;63121;51.458;-0.110;2022-09-13T07:38:19;100981.03;;;19.58;61.20
74615;BME280;63121;51.458;-0.110;2022-09-13T07:40:52;100982.28;;;19.49;61.57
74615;BME280;63121;51.458;-0.110;2022-09-13T07:43:18;100983.44;;;19.62;61.32
74615;BME280;63121;51.458;-0.110;2022-09-13T07:45:44;100993.56;;;19.72;60.47
74615;BME280;63121;51.458;-0.110;2022-09-13T07:48:09;100984.63;;;19.76;60.17
74615;BME280;63121;51.458;-0.110;2022-09-13T07:50:34;100984.16;;;19.66;60.23
74615;BME280;63121;51.458;-0.110;2022-09-13T07:53:00;100978.06;;;19.65;60.69
74615;BME280;63121;51.458;-0.110;2022-09-13T07:55:25;100976.31;;;19.45;61.60
74615;BME280;63121;51.458;-0.110;2022-09-13T07:57:51;100976.84;;;19.54;60.83
74615;BME280;63121;51.458;-0.110;2022-09-13T08:00:16;100986.38;;;19.36;61.52
74615;BME280;63121;51.458;-0.110;2022-09-13T08:02:41;100986.38;;;19.36;61.51
74615;BME280;63121;51.458;-0.110;2022-09-13T08:05:07;100987.38;;;19.52;61.44
74615;BME280;63121;51.458;-0.110;2022-09-13T08:07:32;100987.78;;;19.63;61.29
74615;BME280;63121;51.458;-0.110;2022-09-13T08:09:57;100988.63;;;19.64;60.54
74615;BME280;63121;51.458;-0.110;2022-09-13T08:12:23;100983.41;;;19.43;61.04
74615;BME280;63121;51.458;-0.110;2022-09-13T08:14:48;100988.16;;;19.54;60.66
74615;BME280;63121;51.458;-0.110;2022-09-13T08:17:13;100986.31;;;19.56;60.60
74615;BME280;63121;51.458;-0.110;2022-09-13T08:19:39;100979.72;;;19.47;61.41
74615;BME280;63121;51.458;-0.110;2022-09-13T08:22:04;100983.59;;;19.59;60.35
74615;BME280;63121;51.458;-0.110;2022-09-13T08:24:30;100984.44;;;19.80;59.69
74615;BME280;63121;51.458;-0.110;2022-09-13T08:26:55;100993.13;;;19.81;59.73
74615;BME280;63121;51.458;-0.110;2022-09-13T08:29:21;100991.16;;;20.24;58.74
74615;BME280;63121;51.458;-0.110;2022-09-13T08:31:47;100986.91;;;20.02;59.53
74615;BME280;63121;51.458;-0.110;2022-09-13T08:34:13;100987.81;;;20.20;59.17
74615;BME280;63121;51.458;-0.110;2022-09-13T08:36:39;100987.88;;;20.19;58.80
74615;BME280;63121;51.458;-0.110;2022-09-13T08:39:08;100997.44;;;20.39;58.87
74615;BME280;63121;51.458;-0.110;2022-09-13T08:47:02;100996.94;;;20.86;57.61
74615;BME280;63121;51.458;-0.110;2022-09-13T08:49:35;100999.03;;;20.97;56.89
74615;BME280;63121;51.458;-0.110;2022-09-13T08:52:16;100992.88;;;20.98;57.23
74615;BME280;63121;51.458;-0.110;2022-09-13T08:54:43;100975.69;;;21.08;57.20
74615;BME280;63121;51.458;-0.110;2022-09-13T08:57:21;100983.56;;;21.08;56.79
74615;BME280;63121;51.458;-0.110;2022-09-13T09:05:20;100982.88;;;21.22;56.49
74615;BME280;63121;51.458;-0.110;2022-09-13T09:08:14;100975.28;;;21.33;56.16
74615;BME280;63121;51.458;-0.110;2022-09-13T09:10:48;100992.00;;;21.15;57.20
74615;BME280;63121;51.458;-0.110;2022-09-13T09:16:42;100987.63;;;20.98;57.60
74615;BME280;63121;51.458;-0.110;2022-09-13T09:18:43;100988.03;;;21.06;57.10
74615;BME280;63121;51.458;-0.110;2022-09-13T09:21:19;100981.13;;;21.05;57.63
74615;BME280;63121;51.458;-0.110;2022-09-13T09:23:53;100973.53;;;20.99;57.48
74615;BME280;63121;51.458;-0.110;2022-09-13T09:26:24;100963.22;;;20.96;57.23
74615;BME280;63121;51.458;-0.110;2022-09-13T09:31:43;100958.19;;;20.91;57.80
74615;BME280;63121;51.458;-0.110;2022-09-13T09:37:03;100952.75;;;21.29;57.14
74615;BME280;63121;51.458;-0.110;2022-09-13T09:39:32;100957.50;;;21.05;57.80
74615;BME280;63121;51.458;-0.110;2022-09-13T09:42:03;100954.41;;;20.97;58.64
74615;BME280;63121;51.458;-0.110;2022-09-13T09:44:29;100950.78;;;20.82;59.12
74615;BME280;63121;51.458;-0.110;2022-09-13T09:47:14;100949.47;;;20.90;58.31
74615;BME280;63121;51.458;-0.110;2022-09-13T09:49:44;100955.50;;;20.75;58.99
74615;BME280;63121;51.458;-0.110;2022-09-13T09:52:34;100954.63;;;21.09;58.44
74615;BME280;63121;51.458;-0.110;2022-09-13T09:55:12;100957.50;;;21.05;58.43
74615;BME280;63121;51.458;-0.110;2022-09-13T09:57:59;100960.88;;;21.07;58.56
74615;BME280;63121;51.458;-0.110;2022-09-13T10:00:28;100962.25;;;21.14;58.11
74615;BME280;63121;51.458;-0.110;2022-09-13T10:03:01;100974.00;;;21.24;58.23
74615;BME280;63121;51.458;-0.110;2022-09-13T10:05:28;100963.41;;;21.26;58.17
74615;BME280;63121;51.458;-0.110;2022-09-13T10:08:04;100971.03;;;21.30;58.37
74615;BME280;63121;51.458;-0.110;2022-09-13T10:10:41;100976.63;;;21.07;58.69
74615;BME280;63121;51.458;-0.110;2022-09-13T10:13:14;100985.63;;;21.19;58.62
74615;BME280;63121;51.458;-0.110;2022-09-13T10:18:21;100982.28;;;21.17;58.17
74615;BME280;63121;51.458;-0.110;2022-09-13T10:21:06;100996.22;;;21.35;58.53
74615;BME280;63121;51.458;-0.110;2022-09-13T10:23:33;101005.28;;;21.11;59.70
74615;BME280;63121;51.458;-0.110;2022-09-13T10:26:06;100999.69;;;20.83;61.28
74615;BME280;63121;51.458;-0.110;2022-09-13T10:28:39;101004.66;;;21.24;61.23
74615;BME280;63121;51.458;-0.110;2022-09-13T10:31:09;101017.06;;;21.38;59.60
74615;BME280;63121;51.458;-0.110;2022-09-13T10:36:23;101026.06;;;21.51;60.55
74615;BME280;63121;51.458;-0.110;2022-09-13T10:38:58;101024.88;;;21.57;61.87
74615;BME280;63121;51.458;-0.110;2022-09-13T10:41:33;101024.03;;;21.56;61.55
74615;BME280;63121;51.458;-0.110;2022-09-13T10:44:02;101017.44;;;21.65;60.87
74615;BME280;63121;51.458;-0.110;2022-09-13T10:46:31;101029.13;;;21.59;62.71
74615;BME280;63121;51.458;-0.110;2022-09-13T10:48:58;101031.19;;;21.70;63.35
74615;BME280;63121;51.458;-0.110;2022-09-13T10:51:31;101031.63;;;21.78;62.56
74615;BME280;63121;51.458;-0.110;2022-09-13T10:56:40;101026.97;;;21.67;62.33
74615;BME280;63121;51.458;-0.110;2022-09-13T10:59:25;101024.16;;;21.70;62.92
74615;BME280;63121;51.458;-0.110;2022-09-13T11:13:47;101016.19;;;21.72;63.14
74615;BME280;63121;51.458;-0.110;2022-09-13T11:16:33;101007.47;;;21.87;61.52
74615;BME280;63121;51.458;-0.110;2022-09-13T11:25:28;101010.06;;;22.37;60.96
74615;BME280;63121;51.458;-0.110;2022-09-13T11:30:23;101012.94;;;23.10;59.47
74615;BME280;63121;51.458;-0.110;2022-09-13T11:41:23;101012.53;;;23.02;57.49
74615;BME280;63121;51.458;-0.110;2022-09-13T11:43:59;101006.69;;;22.81;58.71
74615;BME280;63121;51.458;-0.110;2022-09-13T11:58:02;101015.25;;;22.22;58.79
74615;BME280;63121;51.458;-0.110;2022-09-13T12:00:34;101022.25;;;22.22;59.55
74615;BME280;63121;51.458;-0.110;2022-09-13T12:03:14;101020.09;;;22.30;59.51
74615;BME280;63121;51.458;-0.110;2022-09-13T12:05:49;101032.00;;;22.20;60.14
74615;BME280;63121;51.458;-0.110;2022-09-13T12:10:59;101043.25;;;22.71;58.21
74615;BME280;63121;51.458;-0.110;2022-09-13T12:13:40;101040.41;;;22.90;59.92
74615;BME280;63121;51.458;-0.110;2022-09-13T12:16:10;101044.09;;;23.18;58.04
74615;BME280;63121;51.458;-0.110;2022-09-13T12:18:43;101039.31;;;23.24;57.99
74615;BME280;63121;51.458;-0.110;2022-09-13T12:21:12;101029.75;;;23.52;58.82
74615;BME280;63121;51.458;-0.110;2022-09-13T12:23:50;101030.44;;;23.84;58.31
74615;BME280;63121;51.458;-0.110;2022-09-13T12:26:19;101034.41;;;23.77;57.32
74615;BME280;63121;51.458;-0.110;2022-09-13T12:28:55;101022.06;;;23.92;56.87
74615;BME280;63121;51.458;-0.110;2022-09-13T12:31:25;101019.31;;;24.08;56.62
74615;BME280;63121;51.458;-0.110;2022-09-13T12:33:51;101018.66;;;24.04;56.05
74615;BME280;63121;51.458;-0.110;2022-09-13T12:36:40;101019.13;;;24.11;54.27
74615;BME280;63121;51.458;-0.110;2022-09-13T12:47:22;101006.81;;;24.39;55.37
74615;BME280;63121;51.458;-0.110;2022-09-13T12:52:56;100995.06;;;24.30;55.42
74615;BME280;63121;51.458;-0.110;2022-09-13T12:58:25;100995.97;;;24.02;53.92
74615;BME280;63121;51.458;-0.110;2022-09-13T13:03:27;100997.00;;;23.70;55.70
74615;BME280;63121;51.458;-0.110;2022-09-13T13:06:31;100989.47;;;23.64;55.46
74615;BME280;63121;51.458;-0.110;2022-09-13T13:09:02;100987.97;;;23.60;56.62
74615;BME280;63121;51.458;-0.110;2022-09-13T13:11:41;100980.72;;;23.49;55.90
74615;BME280;63121;51.458;-0.110;2022-09-13T13:14:26;100982.25;;;23.68;55.61
74615;BME280;63121;51.458;-0.110;2022-09-13T13:16:52;100977.81;;;23.68;56.21
74615;BME280;63121;51.458;-0.110;2022-09-13T13:19:32;100978.38;;;23.88;56.00
74615;BME280;63121;51.458;-0.110;2022-09-13T13:27:54;100964.25;;;23.89;55.32
74615;BME280;63121;51.458;-0.110;2022-09-13T13:33:15;100966.53;;;23.81;54.20
74615;BME280;63121;51.458;-0.110;2022-09-13T13:35:41;100953.91;;;23.86;54.88
74615;BME280;63121;51.458;-0.110;2022-09-13T13:40:39;100955.91;;;24.51;54.64
74615;BME280;63121;51.458;-0.110;2022-09-13T13:43:34;100943.44;;;24.53;54.29
74615;BME280;63121;51.458;-0.110;2022-09-13T13:48:40;100946.25;;;23.96;53.57
74615;BME280;63121;51.458;-0.110;2022-09-13T13:51:13;100953.44;;;24.21;52.00
74615;BME280;63121;51.458;-0.110;2022-09-13T13:53:42;100945.63;;;24.19;52.83
74615;BME280;63121;51.458;-0.110;2022-09-13T13:56:19;100941.06;;;24.35;52.08
74615;BME280;63121;51.458;-0.110;2022-09-13T13:58:59;100941.53;;;24.28;52.34
74615;BME280;63121;51.458;-0.110;2022-09-13T14:01:30;100937.88;;;23.74;54.71
74615;BME280;63121;51.458;-0.110;2022-09-13T14:04:29;100937.50;;;24.22;52.48
74615;BME280;63121;51.458;-0.110;2022-09-13T14:13:29;100939.38;;;24.47;51.85
74615;BME280;63121;51.458;-0.110;2022-09-13T14:15:54;100928.81;;;24.47;51.19
74615;BME280;63121;51.458;-0.110;2022-09-13T14:23:46;100916.41;;;24.22;52.38
74615;BME280;63121;51.458;-0.110;2022-09-13T14:26:11;100918.16;;;24.09;53.63
74615;BME280;63121;51.458;-0.110;2022-09-13T14:28:37;100914.53;;;23.97;54.25
74615;BME280;63121;51.458;-0.110;2022-09-13T14:31:03;100907.41;;;23.85;54.41
74615;BME280;63121;51.458;-0.110;2022-09-13T14:33:31;100910.84;;;24.00;53.46
74615;BME280;63121;51.458;-0.110;2022-09-13T14:36:17;100912.88;;;24.09;53.21
74615;BME280;63121;51.458;-0.110;2022-09-13T14:38:53;100908.91;;;23.74;54.07
74615;BME280;63121;51.458;-0.110;2022-09-13T14:41:29;100904.47;;;23.75;54.12
74615;BME280;63121;51.458;-0.110;2022-09-13T14:44:16;100909.06;;;23.71;54.28
74615;BME280;63121;51.458;-0.110;2022-09-13T14:46:43;100906.66;;;23.54;54.93
74615;BME280;63121;51.458;-0.110;2022-09-13T14:49:24;100915.69;;;23.50;56.22
74615;BME280;63121;51.458;-0.110;2022-09-13T14:51:54;100912.31;;;23.48;57.50
74615;BME280;63121;51.458;-0.110;2022-09-13T14:54:42;100906.88;;;23.37;57.63
74615;BME280;63121;51.458;-0.110;2022-09-13T14:57:23;100909.00;;;23.01;58.46
74615;BME280;63121;51.458;-0.110;2022-09-13T14:59:53;100906.69;;;23.11;58.12
74615;BME280;63121;51.458;-0.110;2022-09-13T15:02:22;100903.59;;;22.88;58.42
74615;BME280;63121;51.458;-0.110;2022-09-13T15:04:51;100909.53;;;22.92;58.53
74615;BME280;63121;51.458;-0.110;2022-09-13T15:09:49;100900.31;;;22.99;58.29
74615;BME280;63121;51.458;-0.110;2022-09-13T15:12:26;100896.41;;;23.06;58.77
74615;BME280;63121;51.458;-0.110;2022-09-13T15:17:59;100886.09;;;22.73;60.37
74615;BME280;63121;51.458;-0.110;2022-09-13T15:23:26;100890.03;;;22.66;62.86
74615;BME280;63121;51.458;-0.110;2022-09-13T15:31:07;100873.66;;;22.61;61.25
74615;BME280;63121;51.458;-0.110;2022-09-13T15:33:33;100875.19;;;22.65;61.09
74615;BME280;63121;51.458;-0.110;2022-09-13T15:36:28;100880.31;;;22.52;61.65
74615;BME280;63121;51.458;-0.110;2022-09-13T15:39:01;100871.78;;;22.63;61.52
74615;BME280;63121;51.458;-0.110;2022-09-13T15:41:49;100866.91;;;22.57;61.31
74615;BME280;63121;51.458;-0.110;2022-09-13T15:44:15;100867.94;;;22.54;61.77
74615;BME280;63121;51.458;-0.110;2022-09-13T15:46:50;100876.75;;;22.53;62.10
74615;BME280;63121;51.458;-0.110;2022-09-13T15:49:21;100860.03;;;22.54;63.18
74615;BME280;63121;51.458;-0.110;2022-09-13T15:51:54;100868.41;;;22.61;63.14
74615;BME280;63121;51.458;-0.110;2022-09-13T15:54:19;100858.97;;;22.42;63.99
74615;BME280;63121;51.458;-0.110;2022-09-13T15:56:47;100867.47;;;22.31;64.90